Terminal Aerodrome Forecast
Issued by NWS Tuscon, AZ

Home | Current Version | Previous Version | Text Only | Print | Product List | Glossary On
Versions: 1 2 3 4 5 6 7 8 9 10 11 12 13 14 15 16 17 18 19
000
FTUS45 KTWC 290500
TAFTUS
TAF
KTUS 290520Z 2906/3006 15005KT P6SM SCT250
     FM292000 32005KT P6SM FEW100=

USA.gov is the U.S. government's official web portal to all federal, state and local government web resources and services.